odnoklassniki.ru alexa rank chart, odnoklassniki.ru alexa rank daily changes

odnoklassniki.ru alexa rank chart, odnoklassniki.ru alexa rank daily changes

odnoklassniki.ru
Actual rank:
176 854

RANK HISTORY

Date Rank Diff
2018/08/19 176 854 -9
2018/08/18 176 863 -42 131
2018/08/17 218 994 +77 431
2018/08/16 141 563 -158 248
2018/08/15 299 811 +27 919
2018/08/14 271 892 +156 903
2018/08/13 114 989 -75 388
2018/08/12 190 377 +9 860
2018/08/11 180 517 -32 076
2018/08/10 212 593 +30 539
2018/08/09 182 054 +20 429
2018/08/08 161 625 -195 518
2018/08/07 357 143 +173 723
2018/08/06 183 420 +27 581
2018/08/05 155 839 -100 309
2018/08/04 256 148 +100 283
2018/08/03 155 865 -66 314
2018/08/02 222 179 +62 984
2018/08/01 159 195 -7 657
2018/07/31 166 852 -31 271
2018/07/30 198 123 +75 822
2018/07/29 122 301 -169 772
2018/07/28 292 073 +96 399
2018/07/27 195 674 -24 496
2018/07/26 220 170 +65 533
2018/07/25 154 637 +5 066
2018/07/24 149 571 +40 676
2018/07/23 108 895 -130 803
2018/07/22 239 698 +17 897
2018/07/21 221 801 +26 664
2018/07/20 195 137 -13 986
2018/07/19 209 123 -24 117
2018/07/18 233 240 +35 800
2018/07/17 197 440 -19 787
2018/07/16 217 227 -27 794
2018/07/15 245 021 -3 871
2018/07/14 248 892 -46 260
2018/07/13 295 152 +93 160
2018/07/12 201 992 +66 428
2018/07/11 135 564 -54 625
2018/07/10 190 189 +27 030
2018/07/09 163 159 -180 583
2018/07/08 343 742 +174 538
2018/07/07 169 204 -185 104
2018/07/06 354 308 +135 036
2018/07/05 219 272 -74 180
2018/07/04 293 452 +133 607
2018/07/03 159 845 +6 457
2018/07/02 153 388 -73 116
2018/07/01 226 504 +5 356
2018/06/30 221 148 -45 444
2018/06/29 266 592 +106 458
2018/06/28 160 134 -67 169
2018/06/27 227 303 +41 076
2018/06/26 186 227 +84 709
2018/06/25 101 518 -145 596
2018/06/24 247 114 +45 430
2018/06/23 201 684 +41 290
2018/06/22 160 394 -47 228
2018/06/21 207 622 +51 535
2018/06/20 156 087 -67 916
2018/06/19 224 003

WIDGET FOR YOUR SITE

DOMAINS WITH THE NEAREST RANK

Domain Rank
odishaonline.gov.in 176 849
dse.nl 176 850
fome.ru 176 851
nairatips.com 176 852
audiokinetic.com 176 853
odnoklassniki.ru 176 854
uniavisen.dk 176 855
readcereal.com 176 856
esslinger-zeitung.de 176 857
mypervyfamily.com 176 858
t30p.ru 176 859

DOMAINS WITH THE NEAREST RANK BY TLD .ru

Domain Rank
a5.ru 176 767
uiscom.ru 176 778
cdmail.ru 176 826
trud.ru 176 844
fome.ru 176 851
odnoklassniki.ru 176 854
t30p.ru 176 859
ebanatka.ru 176 860
marsu.ru 176 891
wforex.ru 176 907
k1news.ru 176 955